Time;durP1;ratioP1;P1;durP2;ratioP2;P2;SDS_P1;SDS_P2;PMS_P1;PMS_P2;Temp;Humidity;BMP_temperature;BMP_pressure;BME280_temperature;BME280_humidity;BME280_pressure;Samples;Min_cycle;Max_cycle;Signal;HPM_P1;HPM_P2
2023/06/19 00:04:29;;;;;;;6.28;3.15;;;26.40;80.00;;;;;;10965737;32;20027;-73
2023/06/19 00:10:31;;;;;;;6.50;3.78;;;26.50;80.00;;;;;;10979244;32;20431;-73
2023/06/19 00:22:58;;;;;;;3.05;2.15;;;26.30;80.60;;;;;;10986534;32;20053;-73
2023/06/19 00:29:01;;;;;;;5.90;3.30;;;26.30;81.10;;;;;;10983912;32;20361;-73
2023/06/19 00:35:04;;;;;;;5.60;3.20;;;26.30;81.40;;;;;;10986408;32;20019;-74
2023/06/19 00:41:07;;;;;;;7.00;2.72;;;26.30;81.20;;;;;;10982365;32;20049;-73
2023/06/19 00:47:09;;;;;;;5.75;3.90;;;26.30;81.20;;;;;;10972188;32;20336;-74
2023/06/19 00:53:23;;;;;;;5.30;3.10;;;26.30;80.60;;;;;;10986037;32;20042;-73
2023/06/19 00:59:25;;;;;;;5.00;3.75;;;26.30;79.80;;;;;;10985493;32;20030;-73
2023/06/19 01:05:27;;;;;;;4.43;2.87;;;26.30;79.60;;;;;;10985314;32;20053;-73
2023/06/19 01:11:33;;;;;;;8.23;3.97;;;26.20;79.40;;;;;;10981147;32;20056;-73
2023/06/19 01:17:36;;;;;;;5.45;3.28;;;26.10;80.10;;;;;;10983322;32;20023;-73
2023/06/19 01:23:38;;;;;;;5.37;3.45;;;26.10;80.50;;;;;;10984532;32;20062;-73
2023/06/19 01:29:41;;;;;;;7.70;4.12;;;26.00;80.90;;;;;;10980561;32;20018;-73
2023/06/19 01:35:45;;;;;;;7.65;4.62;;;26.00;80.60;;;;;;10979955;32;20034;-73
2023/06/19 01:41:48;;;;;;;6.18;3.92;;;25.90;80.30;;;;;;10982909;32;20045;-73
2023/06/19 01:47:50;;;;;;;5.10;3.70;;;25.90;80.50;;;;;;10982506;32;20027;-73
2023/06/19 01:53:53;;;;;;;6.47;4.25;;;25.80;80.40;;;;;;10969697;32;20050;-73
2023/06/19 01:59:55;;;;;;;6.43;4.70;;;25.80;80.50;;;;;;10983266;32;20298;-73
2023/06/19 02:05:57;;;;;;;7.75;4.72;;;25.80;80.80;;;;;;10981019;32;20435;-73
2023/06/19 02:12:00;;;;;;;6.72;4.93;;;25.70;81.20;;;;;;10980653;32;20077;-73
2023/06/19 02:18:02;;;;;;;10.25;4.70;;;25.70;80.90;;;;;;10982674;32;20022;-73
2023/06/19 02:24:05;;;;;;;7.85;5.15;;;25.70;80.50;;;;;;10982503;32;20344;-73
2023/06/19 02:30:08;;;;;;;7.82;5.35;;;25.60;80.10;;;;;;10982378;32;20019;-73
2023/06/19 02:36:10;;;;;;;9.00;6.75;;;25.60;79.70;;;;;;10964770;32;20042;-73
2023/06/19 02:42:15;;;;;;;7.95;5.15;;;25.50;79.60;;;;;;10977879;32;20380;-73
2023/06/19 02:48:19;;;;;;;7.35;5.20;;;25.30;79.70;;;;;;10964915;32;20176;-73
2023/06/19 02:54:21;;;;;;;9.68;6.55;;;25.30;79.50;;;;;;10964723;32;20049;-73
2023/06/19 03:00:23;;;;;;;8.10;6.03;;;25.30;79.00;;;;;;10977684;32;20333;-73
2023/06/19 03:06:26;;;;;;;10.55;7.07;;;25.30;78.40;;;;;;10977327;32;20026;-73
2023/06/19 03:12:28;;;;;;;8.85;5.95;;;25.30;78.40;;;;;;10976676;32;20014;-73
2023/06/19 03:18:30;;;;;;;5.50;4.05;;;25.30;79.20;;;;;;10980575;32;20041;-73
2023/06/19 03:24:32;;;;;;;9.07;6.47;;;25.20;80.00;;;;;;10976458;32;20031;-73
2023/06/19 03:30:35;;;;;;;7.95;5.62;;;25.20;80.20;;;;;;10979670;32;20030;-73
2023/06/19 03:36:37;;;;;;;9.75;6.80;;;25.10;80.10;;;;;;10979424;32;20105;-73
2023/06/19 03:42:42;;;;;;;8.50;6.07;;;25.00;80.00;;;;;;10978637;32;20026;-73
2023/06/19 03:48:57;;;;;;;8.80;6.05;;;25.00;80.00;;;;;;10978229;32;20035;-73
2023/06/19 03:54:59;;;;;;;8.45;5.95;;;25.10;79.50;;;;;;10979586;32;20015;-73
2023/06/19 04:01:13;;;;;;;7.18;5.12;;;25.10;79.50;;;;;;10978634;32;20022;-73
2023/06/19 04:07:16;;;;;;;9.00;4.62;;;25.20;79.40;;;;;;10977683;32;20065;-73
2023/06/19 04:13:18;;;;;;;6.75;5.03;;;25.10;79.70;;;;;;10965768;32;20027;-73
2023/06/19 04:19:33;;;;;;;6.53;4.50;;;25.10;79.50;;;;;;10963494;32;20325;-73
2023/06/19 04:25:35;;;;;;;9.07;6.85;;;25.20;79.20;;;;;;10978918;32;20073;-73
2023/06/19 04:31:40;;;;;;;6.72;4.78;;;25.20;79.70;;;;;;10979084;32;20388;-73
2023/06/19 04:37:42;;;;;;;12.65;6.62;;;25.20;80.40;;;;;;10976050;32;20023;-73
2023/06/19 04:43:45;;;;;;;7.18;4.80;;;25.20;80.70;;;;;;10975829;32;20429;-73
2023/06/19 04:49:47;;;;;;;7.28;5.18;;;25.20;81.00;;;;;;10975684;32;20019;-73
2023/06/19 04:55:51;;;;;;;6.45;4.75;;;25.30;81.00;;;;;;10978281;32;20042;-74
2023/06/19 05:01:54;;;;;;;7.50;5.28;;;25.30;81.00;;;;;;10978998;32;20023;-73
2023/06/19 05:07:56;;;;;;;8.85;6.53;;;25.30;81.20;;;;;;10979723;32;20022;-73
2023/06/19 05:13:58;;;;;;;9.82;5.78;;;25.30;81.20;;;;;;10947172;32;20022;-74
2023/06/19 05:20:00;;;;;;;9.07;6.82;;;25.30;81.60;;;;;;10943046;32;20023;-73
2023/06/19 05:26:02;;;;;;;9.88;5.68;;;25.10;81.70;;;;;;10928539;32;20065;-73
2023/06/19 05:32:04;;;;;;;8.23;5.72;;;25.10;82.00;;;;;;10946572;32;20057;-73
2023/06/19 05:38:06;;;;;;;11.32;7.10;;;25.10;82.00;;;;;;10946648;32;20329;-73
2023/06/19 05:44:09;;;;;;;14.07;8.50;;;25.20;81.90;;;;;;10945322;32;20027;-73
2023/06/19 05:50:11;;;;;;;8.30;6.45;;;25.20;81.90;;;;;;10930869;32;20039;-73
2023/06/19 05:56:13;;;;;;;9.40;6.50;;;25.50;81.60;;;;;;10944835;32;20027;-73
2023/06/19 06:02:17;;;;;;;10.55;7.45;;;25.70;81.60;;;;;;10965919;32;20030;-73
2023/06/19 06:08:19;;;;;;;10.77;6.95;;;25.80;81.20;;;;;;10981835;32;20023;-73
2023/06/19 06:14:21;;;;;;;7.75;4.70;;;25.90;80.90;;;;;;10982312;32;20035;-72
2023/06/19 06:20:23;;;;;;;9.77;6.25;;;25.80;80.80;;;;;;10982769;32;20018;-73
2023/06/19 06:26:27;;;;;;;14.55;6.10;;;25.80;81.20;;;;;;10982397;32;20184;-73
2023/06/19 06:32:30;;;;;;;10.00;6.07;;;25.70;81.30;;;;;;10979449;32;20023;-72
2023/06/19 06:38:32;;;;;;;8.02;5.47;;;25.80;81.40;;;;;;10979074;32;20027;-73
2023/06/19 06:44:35;;;;;;;8.70;5.72;;;26.00;80.80;;;;;;10978777;32;20014;-73
2023/06/19 06:50:41;;;;;;;10.95;6.72;;;26.20;80.60;;;;;;10968408;32;20324;-72
2023/06/19 06:56:47;;;;;;;8.07;4.90;;;26.30;80.40;;;;;;10981076;32;20047;-73
2023/06/19 07:02:50;;;;;;;9.50;5.97;;;26.20;79.90;;;;;;10977519;32;20053;-73
2023/06/19 07:08:52;;;;;;;6.18;4.35;;;26.30;80.00;;;;;;10977090;32;20048;-73
2023/06/19 07:14:55;;;;;;;5.72;4.30;;;26.60;79.60;;;;;;10967827;32;20026;-73
2023/06/19 07:20:57;;;;;;;6.50;4.15;;;26.80;79.20;;;;;;10978368;32;20045;-72
2023/06/19 07:26:59;;;;;;;6.75;4.25;;;26.80;79.10;;;;;;10984422;27;20073;-73
2023/06/19 07:33:01;;;;;;;9.00;5.32;;;26.70;79.30;;;;;;10980016;32;20049;-72
2023/06/19 07:39:03;;;;;;;5.60;3.53;;;26.70;79.70;;;;;;10976192;32;20435;-73
2023/06/19 07:45:05;;;;;;;6.12;3.80;;;26.70;79.80;;;;;;10975586;32;20053;-72
2023/06/19 07:51:07;;;;;;;6.18;4.25;;;26.80;79.30;;;;;;10975266;32;20022;-73
2023/06/19 07:57:10;;;;;;;7.05;4.78;;;27.00;79.30;;;;;;10974933;32;20027;-72
2023/06/19 08:03:12;;;;;;;4.55;3.42;;;27.20;78.80;;;;;;10979297;32;20014;-73
2023/06/19 08:09:14;;;;;;;5.22;3.30;;;27.30;77.40;;;;;;10979292;32;20015;-73
2023/06/19 08:15:21;;;;;;;5.82;3.30;;;27.30;77.40;;;;;;10978383;32;20289;-73
2023/06/19 08:21:36;;;;;;;6.28;4.03;;;27.40;77.10;;;;;;10979109;32;20049;-72
2023/06/19 08:28:00;;;;;;;4.65;2.97;;;27.60;76.40;;;;;;10978401;32;20022;-73
2023/06/19 08:34:06;;;;;;;5.25;2.87;;;27.70;74.80;;;;;;10978135;32;20018;-73
2023/06/19 08:40:09;;;;;;;4.93;3.62;;;27.80;74.10;;;;;;10972638;32;20030;-73
2023/06/19 08:46:19;;;;;;;10.07;4.68;;;27.80;73.60;;;;;;10982181;32;20045;-74
2023/06/19 08:52:23;;;;;;;8.18;5.35;;;28.00;73.20;;;;;;10985645;32;20018;-73
2023/06/19 08:58:26;;;;;;;9.32;3.75;;;28.00;72.10;;;;;;10982648;32;20045;-72
2023/06/19 09:04:28;;;;;;;7.45;4.78;;;28.20;72.10;;;;;;10968346;32;20030;-72
2023/06/19 09:10:31;;;;;;;6.75;3.45;;;28.30;70.90;;;;;;10971756;32;20037;-72
2023/06/19 09:16:40;;;;;;;7.40;4.78;;;28.40;70.00;;;;;;10981265;32;20484;-73
2023/06/19 09:22:44;;;;;;;6.53;4.20;;;28.60;69.90;;;;;;10984794;32;20049;-73
2023/06/19 09:28:46;;;;;;;7.43;3.70;;;28.60;68.90;;;;;;10984672;32;20041;-73
2023/06/19 09:34:50;;;;;;;7.65;3.97;;;28.80;68.80;;;;;;10971082;32;20022;-72
2023/06/19 09:40:53;;;;;;;5.22;3.33;;;28.90;67.50;;;;;;10984368;32;20015;-73
2023/06/19 09:46:59;;;;;;;8.13;3.67;;;28.80;66.30;;;;;;10969761;32;20088;-73
2023/06/19 09:53:01;;;;;;;5.97;3.15;;;29.00;66.10;;;;;;10982901;32;20045;-73
2023/06/19 09:59:05;;;;;;;5.28;3.30;;;29.00;65.90;;;;;;10969116;32;20072;-73
2023/06/19 10:05:12;;;;;;;10.25;3.37;;;29.20;65.40;;;;;;10983046;32;20006;-73
2023/06/19 10:11:14;;;;;;;;;;;29.30;65.20;;;;;;10983328;32;20057;-73
2023/06/19 10:17:19;;;;;;;4.05;2.55;;;29.50;65.00;;;;;;10982904;32;19930;-73
2023/06/19 10:23:24;;;;;;;5.80;3.20;;;29.80;64.80;;;;;;10982942;32;20027;-73
2023/06/19 10:29:39;;;;;;;12.25;3.75;;;29.80;63.60;;;;;;10982384;32;20045;-74
2023/06/19 10:35:41;;;;;;;5.57;3.78;;;29.80;63.10;;;;;;10968379;32;20328;-73
2023/06/19 10:41:43;;;;;;;5.53;3.35;;;29.90;63.80;;;;;;10982087;32;20340;-77
2023/06/19 10:47:45;;;;;;;6.82;4.75;;;30.10;62.70;;;;;;10981332;32;20015;-74
2023/06/19 10:53:49;;;;;;;4.03;3.12;;;30.30;62.50;;;;;;10981320;32;20018;-73
2023/06/19 10:59:52;;;;;;;5.32;3.47;;;30.50;63.10;;;;;;10967463;32;20026;-75
2023/06/19 11:05:54;;;;;;;9.48;5.65;;;30.70;62.10;;;;;;10981105;32;20030;-74
2023/06/19 11:11:56;;;;;;;5.97;4.70;;;30.70;62.50;;;;;;10980698;32;20045;-73
2023/06/19 11:18:14;;;;;;;10.05;4.22;;;30.60;59.90;;;;;;10981996;32;20022;-75
2023/06/19 11:24:17;;;;;;;5.90;3.80;;;30.80;59.30;;;;;;10980164;32;20061;-73
2023/06/19 11:30:30;;;;;;;6.53;4.32;;;30.90;60.40;;;;;;10980310;32;20057;-75
2023/06/19 11:36:32;;;;;;;7.50;4.85;;;31.20;59.50;;;;;;10966851;32;20015;-76
2023/06/19 11:42:44;;;;;;;9.70;4.15;;;31.20;57.30;;;;;;10979827;32;20333;-74
2023/06/19 11:48:47;;;;;;;4.40;3.25;;;31.40;58.80;;;;;;10962089;32;20026;-73
2023/06/19 11:54:49;;;;;;;5.43;3.75;;;31.80;58.00;;;;;;10978839;32;20412;-73
2023/06/19 12:00:53;;;;;;;14.75;6.00;;;32.10;57.10;;;;;;10962010;32;20034;-76
2023/06/19 12:06:55;;;;;;;6.87;4.65;;;32.20;56.60;;;;;;10979590;32;20031;-75
2023/06/19 12:13:29;;;;;;;8.80;5.45;;;32.00;55.60;;;;;;10978683;32;20060;-74
2023/06/19 12:19:38;;;;;;;6.70;4.55;;;32.00;56.30;;;;;;10979270;32;20046;-72
2023/06/19 12:25:41;;;;;;;10.93;5.40;;;32.10;54.90;;;;;;10965016;32;20039;-74
2023/06/19 12:31:44;;;;;;;10.13;7.12;;;32.20;54.90;;;;;;10952358;32;20038;-74
2023/06/19 12:38:12;;;;;;;6.68;4.53;;;32.20;57.00;;;;;;10978911;32;20434;-73
2023/06/19 12:44:14;;;;;;;8.45;4.43;;;32.10;56.60;;;;;;10962140;32;20047;-73
2023/06/19 12:50:16;;;;;;;6.32;5.18;;;31.90;56.20;;;;;;10978663;32;20022;-73
2023/06/19 12:56:19;;;;;;;8.73;4.90;;;31.80;56.10;;;;;;10963474;32;20052;-72
2023/06/19 13:02:21;;;;;;;7.50;5.45;;;32.10;55.80;;;;;;10978323;32;20037;-72
2023/06/19 13:08:25;;;;;;;8.52;4.43;;;32.40;55.00;;;;;;10974277;32;20035;-73
2023/06/19 13:14:28;;;;;;;6.43;4.53;;;32.30;53.60;;;;;;10978061;32;20015;-73
2023/06/19 13:20:32;;;;;;;6.32;4.37;;;32.40;53.10;;;;;;10966493;32;20388;-75
2023/06/19 13:26:36;;;;;;;6.80;4.47;;;32.30;52.20;;;;;;10984560;32;20027;-74
2023/06/19 13:32:38;;;;;;;4.53;3.17;;;32.30;52.20;;;;;;10984659;32;20389;-73
2023/06/19 13:38:40;;;;;;;10.63;5.68;;;32.50;52.40;;;;;;10968087;32;20026;-74
2023/06/19 13:44:42;;;;;;;7.43;4.62;;;32.50;50.30;;;;;;10964792;32;20049;-74
2023/06/19 13:50:44;;;;;;;6.87;3.80;;;32.30;52.40;;;;;;10983823;32;20037;-73
2023/06/19 13:56:48;;;;;;;10.38;5.57;;;32.30;52.10;;;;;;10982451;32;20049;-74
2023/06/19 14:02:51;;;;;;;6.30;4.82;;;32.30;56.70;;;;;;10974571;32;20027;-73
2023/06/19 14:08:54;;;;;;;7.03;3.78;;;32.30;55.50;;;;;;10982177;32;20030;-73
2023/06/19 14:14:57;;;;;;;5.00;3.35;;;32.40;54.50;;;;;;10980222;32;20022;-73
2023/06/19 14:20:59;;;;;;;11.07;5.28;;;32.50;53.80;;;;;;10967264;32;20099;-73
2023/06/19 14:27:01;;;;;;;7.35;5.18;;;32.50;53.70;;;;;;10969267;32;20026;-73
2023/06/19 14:33:03;;;;;;;7.40;4.50;;;32.40;54.30;;;;;;10966444;32;20042;-74
2023/06/19 14:39:05;;;;;;;11.52;5.80;;;32.40;58.10;;;;;;10981604;32;20027;-73
2023/06/19 14:45:08;;;;;;;6.03;4.55;;;32.30;58.70;;;;;;10966284;32;20057;-73
2023/06/19 14:51:11;;;;;;;5.12;3.80;;;32.40;59.30;;;;;;10980611;32;20034;-73
2023/06/19 14:57:13;;;;;;;6.53;4.70;;;32.30;57.80;;;;;;10966346;32;20038;-73
2023/06/19 15:03:15;;;;;;;7.47;4.28;;;32.30;57.30;;;;;;10980754;32;20352;-73
2023/06/19 15:09:18;;;;;;;4.45;3.37;;;32.20;57.30;;;;;;10978137;32;20031;-72
2023/06/19 15:15:20;;;;;;;5.60;3.85;;;32.20;56.90;;;;;;10949037;32;20372;-73
2023/06/19 15:21:22;;;;;;;8.88;5.40;;;32.20;56.80;;;;;;10942813;32;20405;-73
2023/06/19 15:31:22;;;;;;;8.55;4.22;;;32.20;57.20;;;;;;10594758;32;12152948;-72
2023/06/19 15:37:24;;;;;;;14.90;4.97;;;32.20;57.00;;;;;;10918079;32;20049;-72
2023/06/19 15:43:28;;;;;;;7.28;4.10;;;32.20;57.00;;;;;;10932468;32;20031;-72
2023/06/19 15:49:30;;;;;;;9.10;4.50;;;32.20;56.70;;;;;;10920231;32;20031;-72
2023/06/19 15:55:33;;;;;;;6.53;4.18;;;32.20;57.90;;;;;;10985456;32;20023;-74
2023/06/19 16:01:35;;;;;;;5.10;3.87;;;32.20;59.00;;;;;;10997999;32;20018;-72
2023/06/19 16:07:37;;;;;;;14.07;5.20;;;32.10;58.60;;;;;;10993751;32;20057;-72
2023/06/19 16:13:39;;;;;;;5.72;4.25;;;32.10;58.70;;;;;;11011125;32;20077;-73
2023/06/19 16:19:41;;;;;;;5.25;3.83;;;32.10;59.10;;;;;;10997379;32;20022;-71
2023/06/19 16:25:44;;;;;;;8.05;5.20;;;32.10;59.90;;;;;;10996549;32;20052;-73
2023/06/19 16:31:46;;;;;;;6.95;4.32;;;32.10;59.70;;;;;;11009852;32;20045;-73
2023/06/19 16:37:53;;;;;;;7.65;5.45;;;32.10;59.30;;;;;;11005594;32;20065;-73
2023/06/19 16:43:55;;;;;;;8.25;5.57;;;32.10;59.80;;;;;;10970657;32;20038;-73
2023/06/19 16:49:57;;;;;;;11.65;6.47;;;32.00;61.00;;;;;;10984484;32;20199;-74
2023/06/19 16:55:59;;;;;;;9.48;4.95;;;32.00;60.80;;;;;;10970761;32;20107;-73
2023/06/19 17:02:02;;;;;;;7.05;4.12;;;32.00;62.70;;;;;;10984171;32;20015;-73
2023/06/19 17:08:04;;;;;;;7.37;5.10;;;31.80;63.80;;;;;;10983831;32;20022;-75
2023/06/19 17:14:06;;;;;;;8.20;4.68;;;31.80;63.50;;;;;;10983434;32;20019;-72
2023/06/19 17:20:13;;;;;;;20.58;6.43;;;31.70;64.00;;;;;;10967838;32;20034;-72
2023/06/19 17:26:15;;;;;;;;;;;31.60;63.90;;;;;;10969925;32;20045;-72
2023/06/19 17:32:17;;;;;;;7.65;4.10;;;31.50;64.90;;;;;;10969712;32;19921;-73
2023/06/19 17:38:20;;;;;;;6.05;4.45;;;31.40;65.40;;;;;;10983023;32;20041;-73
2023/06/19 17:44:27;;;;;;;7.90;5.12;;;31.40;64.90;;;;;;10982738;32;20007;-72
2023/06/19 17:50:30;;;;;;;8.27;4.18;;;31.40;65.70;;;;;;10981615;32;20096;-73
2023/06/19 17:56:32;;;;;;;6.00;3.92;;;31.40;66.20;;;;;;10982094;32;20341;-73
2023/06/19 18:02:34;;;;;;;6.78;5.28;;;31.60;66.40;;;;;;10962359;32;20360;-72
2023/06/19 18:08:36;;;;;;;7.20;4.82;;;31.60;65.90;;;;;;10960036;32;20049;-72
2023/06/19 18:14:38;;;;;;;5.97;4.03;;;31.30;66.50;;;;;;10943905;32;20337;-72
2023/06/19 18:20:41;;;;;;;6.25;4.25;;;31.00;67.00;;;;;;10943708;32;20042;-72
2023/06/19 18:26:43;;;;;;;8.10;3.37;;;30.80;66.90;;;;;;10942675;32;20054;-72
2023/06/19 18:32:45;;;;;;;5.85;3.30;;;30.80;67.20;;;;;;10943419;32;20038;-73
2023/06/19 18:38:47;;;;;;;5.03;3.72;;;30.60;67.30;;;;;;10939944;32;20164;-72
2023/06/19 18:44:50;;;;;;;5.05;3.58;;;30.60;67.30;;;;;;10942731;32;20011;-73
2023/06/19 18:50:52;;;;;;;5.25;3.47;;;30.30;68.00;;;;;;10939387;32;20031;-73
2023/06/19 18:56:54;;;;;;;5.18;3.62;;;30.20;68.50;;;;;;10942248;32;20401;-73
2023/06/19 19:02:58;;;;;;;5.78;4.05;;;30.20;68.90;;;;;;10940649;32;20022;-73
2023/06/19 19:09:00;;;;;;;5.25;3.53;;;30.10;69.50;;;;;;10941984;32;20050;-73
2023/06/19 19:15:02;;;;;;;5.30;3.62;;;30.00;69.80;;;;;;10940173;32;20027;-72
2023/06/19 19:21:05;;;;;;;4.97;3.72;;;30.00;70.00;;;;;;10938965;32;20041;-73
2023/06/19 19:27:07;;;;;;;5.90;3.35;;;30.00;70.20;;;;;;10941739;32;20049;-73
2023/06/19 19:33:09;;;;;;;8.02;4.20;;;29.90;70.40;;;;;;10938272;32;20397;-73
2023/06/19 19:39:12;;;;;;;4.47;3.35;;;29.80;70.80;;;;;;10937955;32;20063;-73
2023/06/19 19:45:15;;;;;;;5.22;3.65;;;29.80;71.00;;;;;;10941415;32;20038;-73
2023/06/19 19:51:17;;;;;;;6.68;4.37;;;29.80;71.60;;;;;;10937456;32;20022;-73
2023/06/19 19:57:19;;;;;;;6.03;3.92;;;29.60;72.50;;;;;;10937519;32;20325;-72
2023/06/19 20:03:21;;;;;;;6.15;4.53;;;29.50;72.80;;;;;;10941149;32;20019;-73
2023/06/19 20:09:24;;;;;;;7.97;5.30;;;29.40;73.40;;;;;;10941074;32;20303;-73
2023/06/19 20:15:26;;;;;;;7.10;4.28;;;29.40;73.40;;;;;;10943879;32;20019;-73
2023/06/19 20:21:29;;;;;;;6.28;3.55;;;29.40;73.40;;;;;;10947956;32;20431;-73
2023/06/19 20:27:31;;;;;;;3.83;3.12;;;29.30;73.50;;;;;;10947604;32;20042;-73
2023/06/19 20:33:33;;;;;;;7.10;4.30;;;29.30;73.60;;;;;;10947629;32;20011;-73
2023/06/19 20:39:35;;;;;;;5.12;3.92;;;29.20;73.80;;;;;;10943266;32;20027;-73
2023/06/19 20:45:40;;;;;;;7.87;3.97;;;29.10;73.80;;;;;;10947107;32;20386;-73
2023/06/19 20:51:42;;;;;;;4.50;3.33;;;29.00;73.90;;;;;;10944959;32;20393;-73
2023/06/19 20:57:44;;;;;;;5.20;3.92;;;29.00;74.20;;;;;;10946565;32;20019;-73
2023/06/19 21:03:49;;;;;;;5.20;3.62;;;29.00;74.30;;;;;;10944546;32;20046;-73
2023/06/19 21:09:51;;;;;;;5.97;4.03;;;28.90;74.40;;;;;;10942744;32;20397;-73
2023/06/19 21:15:53;;;;;;;5.85;3.83;;;28.90;74.90;;;;;;10944953;32;20322;-73
2023/06/19 21:21:56;;;;;;;5.47;3.03;;;28.80;75.30;;;;;;10940972;32;20027;-73
2023/06/19 21:28:00;;;;;;;5.43;4.03;;;28.80;75.30;;;;;;10941840;32;20027;-73
2023/06/19 21:34:03;;;;;;;6.05;4.18;;;28.70;75.40;;;;;;10939788;32;20023;-73
2023/06/19 21:40:07;;;;;;;4.20;2.75;;;28.50;76.10;;;;;;10944553;32;20307;-73
2023/06/19 21:46:09;;;;;;;4.40;3.10;;;28.40;76.10;;;;;;10940966;32;20405;-73
2023/06/19 21:52:11;;;;;;;5.07;3.25;;;28.30;76.10;;;;;;10944424;32;20345;-73
2023/06/19 21:58:13;;;;;;;5.75;3.50;;;28.30;76.20;;;;;;10939398;32;20435;-73
2023/06/19 22:04:16;;;;;;;6.15;3.78;;;28.30;76.40;;;;;;10944282;32;20019;-73
2023/06/19 22:10:18;;;;;;;4.55;3.15;;;28.30;77.00;;;;;;10942882;32;20049;-73
2023/06/19 22:16:20;;;;;;;4.80;4.07;;;28.20;77.10;;;;;;10942792;32;20412;-73
2023/06/19 22:22:22;;;;;;;4.85;3.30;;;28.20;76.90;;;;;;10943484;32;20037;-73
2023/06/19 22:28:24;;;;;;;4.97;3.72;;;28.20;76.70;;;;;;10943340;32;20019;-73
2023/06/19 22:34:26;;;;;;;5.15;3.30;;;28.10;76.70;;;;;;10941669;32;20015;-73
2023/06/19 22:40:29;;;;;;;6.95;3.87;;;28.10;76.60;;;;;;10942623;32;20019;-73
2023/06/19 22:46:32;;;;;;;4.65;3.42;;;28.10;76.70;;;;;;10940475;32;20026;-73
2023/06/19 22:52:34;;;;;;;7.25;3.97;;;28.00;77.00;;;;;;10940349;32;20046;-73
2023/06/19 22:58:37;;;;;;;6.70;4.15;;;28.00;76.90;;;;;;10939857;32;20015;-73
2023/06/19 23:04:39;;;;;;;8.40;4.22;;;27.90;77.20;;;;;;10939561;32;20337;-73
2023/06/19 23:10:41;;;;;;;8.23;4.57;;;27.90;77.30;;;;;;10963279;32;20352;-73
2023/06/19 23:16:43;;;;;;;5.87;4.43;;;27.80;77.30;;;;;;10979693;32;20015;-73
2023/06/19 23:22:47;;;;;;;6.22;4.32;;;27.70;77.40;;;;;;10976466;32;20015;-73
2023/06/19 23:28:51;;;;;;;7.60;5.22;;;27.70;77.40;;;;;;10900207;26;20031;-74
2023/06/19 23:34:53;;;;;;;7.72;5.97;;;27.60;77.50;;;;;;10857609;32;20042;-74
2023/06/19 23:40:54;;;;;;;10.30;7.12;;;27.50;77.90;;;;;;10861236;32;20008;-73
2023/06/19 23:46:56;;;;;;;8.65;6.62;;;27.40;78.60;;;;;;10857030;32;20024;-73
2023/06/19 23:52:59;;;;;;;9.57;7.18;;;27.50;78.50;;;;;;10867151;32;20046;-73
2023/06/19 23:59:01;;;;;;;12.32;9.20;;;27.60;78.40;;;;;;10867380;32;20388;-73
